Augusta, Arkansas
Current Conditions -  °F | °C
As of 11:56 PM on Wednesday 22 Oct 2014 (Local Time) from KSRC Reporting Station
Clear Clear  
Wind Chill: 46°   Ceiling: Unl
Heat Index: 46°   Visibility: 10mi
Dew Point: 44°   Wind: 3mph
Humidity: 93%   Direction: 20°NNE
Pressure: 30.21"   Gusts: NA
Location:  35.28°N, 91.37°W
Report Text: KSRC 230456Z AUTO 02003KT 10SM CLR 08/07 A3021 RMK AO2 SLP238 T00780067 402110078 TSNO
Loading
Personal Weather Stations






























Interactive Weather Map
Tropical Storm Tracking
New forecast layout! Learn more

10-Day Weather Forecast

Advertisements
Track Severe Weather on mobile